sensor_id;sensor_type;location;lat;lon;timestamp;temperature;humidity
40758;DHT22;26462;47.384;19.218;2023-02-04T00:04:39;4.40;99.90
40758;DHT22;26462;47.384;19.218;2023-02-04T00:07:10;4.40;99.90
40758;DHT22;26462;47.384;19.218;2023-02-04T00:09:52;4.60;99.90
40758;DHT22;26462;47.384;19.218;2023-02-04T00:12:35;4.70;99.90
40758;DHT22;26462;47.384;19.218;2023-02-04T00:18:28;4.60;99.90
40758;DHT22;26462;47.384;19.218;2023-02-04T00:20:57;4.80;99.90
40758;DHT22;26462;47.384;19.218;2023-02-04T00:23:30;4.70;99.90
40758;DHT22;26462;47.384;19.218;2023-02-04T00:26:05;4.80;99.90
40758;DHT22;26462;47.384;19.218;2023-02-04T00:28:39;3.90;99.90
40758;DHT22;26462;47.384;19.218;2023-02-04T00:31:09;4.80;99.90
40758;DHT22;26462;47.384;19.218;2023-02-04T00:34:03;4.90;99.90
40758;DHT22;26462;47.384;19.218;2023-02-04T00:36:52;3.90;99.90
40758;DHT22;26462;47.384;19.218;2023-02-04T00:43:00;4.80;99.90
40758;DHT22;26462;47.384;19.218;2023-02-04T00:45:54;4.80;99.90
40758;DHT22;26462;47.384;19.218;2023-02-04T00:48:35;4.70;99.90
40758;DHT22;26462;47.384;19.218;2023-02-04T00:55:09;4.90;99.90
40758;DHT22;26462;47.384;19.218;2023-02-04T00:58:11;5.20;99.90
40758;DHT22;26462;47.384;19.218;2023-02-04T01:00:53;4.90;99.90
40758;DHT22;26462;47.384;19.218;2023-02-04T01:03:32;4.90;99.90
40758;DHT22;26462;47.384;19.218;2023-02-04T01:06:06;4.90;99.90
40758;DHT22;26462;47.384;19.218;2023-02-04T01:09:14;4.70;99.90
40758;DHT22;26462;47.384;19.218;2023-02-04T01:12:15;4.70;99.90
40758;DHT22;26462;47.384;19.218;2023-02-04T01:16:00;4.90;99.90
40758;DHT22;26462;47.384;19.218;2023-02-04T01:19:22;4.90;99.90
40758;DHT22;26462;47.384;19.218;2023-02-04T01:22:46;5.00;99.90
40758;DHT22;26462;47.384;19.218;2023-02-04T01:29:18;4.90;99.90
40758;DHT22;26462;47.384;19.218;2023-02-04T01:32:39;5.10;99.90
40758;DHT22;26462;47.384;19.218;2023-02-04T01:35:27;5.10;99.90
40758;DHT22;26462;47.384;19.218;2023-02-04T01:38:02;5.90;99.90
40758;DHT22;26462;47.384;19.218;2023-02-04T01:44:18;5.00;99.90
40758;DHT22;26462;47.384;19.218;2023-02-04T01:46:51;5.20;99.90
40758;DHT22;26462;47.384;19.218;2023-02-04T01:49:38;5.20;99.90
40758;DHT22;26462;47.384;19.218;2023-02-04T01:52:45;5.10;99.90
40758;DHT22;26462;47.384;19.218;2023-02-04T01:55:28;5.40;99.90
40758;DHT22;26462;47.384;19.218;2023-02-04T01:58:30;5.30;99.90
40758;DHT22;26462;47.384;19.218;2023-02-04T02:01:35;5.30;99.90
40758;DHT22;26462;47.384;19.218;2023-02-04T02:04:35;5.20;99.90
40758;DHT22;26462;47.384;19.218;2023-02-04T02:07:42;5.40;99.90
40758;DHT22;26462;47.384;19.218;2023-02-04T02:10:29;5.30;99.90
40758;DHT22;26462;47.384;19.218;2023-02-04T02:13:20;5.20;99.90
40758;DHT22;26462;47.384;19.218;2023-02-04T02:15:49;5.10;99.90
40758;DHT22;26462;47.384;19.218;2023-02-04T02:18:28;5.20;99.90
40758;DHT22;26462;47.384;19.218;2023-02-04T02:21:09;4.60;99.90
40758;DHT22;26462;47.384;19.218;2023-02-04T02:23:54;5.30;99.90
40758;DHT22;26462;47.384;19.218;2023-02-04T02:26:47;5.20;99.90
40758;DHT22;26462;47.384;19.218;2023-02-04T02:33:13;5.30;99.90
40758;DHT22;26462;47.384;19.218;2023-02-04T02:36:08;5.30;99.90
40758;DHT22;26462;47.384;19.218;2023-02-04T02:39:06;5.30;99.90
40758;DHT22;26462;47.384;19.218;2023-02-04T02:41:38;5.50;99.90
40758;DHT22;26462;47.384;19.218;2023-02-04T02:44:32;5.40;99.90
40758;DHT22;26462;47.384;19.218;2023-02-04T02:50:55;5.30;99.90
40758;DHT22;26462;47.384;19.218;2023-02-04T02:56:49;5.20;99.90
40758;DHT22;26462;47.384;19.218;2023-02-04T03:00:40;5.30;99.90
40758;DHT22;26462;47.384;19.218;2023-02-04T03:03:36;5.80;99.90
40758;DHT22;26462;47.384;19.218;2023-02-04T03:06:54;5.50;99.90
40758;DHT22;26462;47.384;19.218;2023-02-04T03:16:20;5.30;99.90
40758;DHT22;26462;47.384;19.218;2023-02-04T03:19:06;5.30;99.90
40758;DHT22;26462;47.384;19.218;2023-02-04T03:26:11;5.40;99.90
40758;DHT22;26462;47.384;19.218;2023-02-04T03:29:00;5.20;99.90
40758;DHT22;26462;47.384;19.218;2023-02-04T03:31:54;5.30;99.90
40758;DHT22;26462;47.384;19.218;2023-02-04T03:34:30;4.40;99.90
40758;DHT22;26462;47.384;19.218;2023-02-04T03:37:03;5.30;99.90
40758;DHT22;26462;47.384;19.218;2023-02-04T03:39:46;5.10;99.90
40758;DHT22;26462;47.384;19.218;2023-02-04T03:42:21;5.40;99.90
40758;DHT22;26462;47.384;19.218;2023-02-04T03:47:50;5.30;99.90
40758;DHT22;26462;47.384;19.218;2023-02-04T03:51:00;5.30;99.90
40758;DHT22;26462;47.384;19.218;2023-02-04T03:56:17;5.20;99.90
40758;DHT22;26462;47.384;19.218;2023-02-04T04:02:43;5.30;99.90
40758;DHT22;26462;47.384;19.218;2023-02-04T04:05:44;5.30;99.90
40758;DHT22;26462;47.384;19.218;2023-02-04T04:21:50;5.20;99.90
40758;DHT22;26462;47.384;19.218;2023-02-04T04:24:44;5.20;99.90
40758;DHT22;26462;47.384;19.218;2023-02-04T04:27:43;4.60;99.90
40758;DHT22;26462;47.384;19.218;2023-02-04T04:34:07;5.30;99.90
40758;DHT22;26462;47.384;19.218;2023-02-04T04:40:49;5.30;99.90
40758;DHT22;26462;47.384;19.218;2023-02-04T04:48:12;5.20;99.90
40758;DHT22;26462;47.384;19.218;2023-02-04T04:52:04;5.10;99.90
40758;DHT22;26462;47.384;19.218;2023-02-04T04:54:38;5.30;99.90
40758;DHT22;26462;47.384;19.218;2023-02-04T04:57:34;5.40;99.90
40758;DHT22;26462;47.384;19.218;2023-02-04T05:00:42;5.00;99.90
40758;DHT22;26462;47.384;19.218;2023-02-04T05:03:28;5.40;99.90
40758;DHT22;26462;47.384;19.218;2023-02-04T05:07:13;5.50;99.90
40758;DHT22;26462;47.384;19.218;2023-02-04T05:09:53;5.50;99.90
40758;DHT22;26462;47.384;19.218;2023-02-04T05:12:46;5.60;99.90
40758;DHT22;26462;47.384;19.218;2023-02-04T05:15:50;5.40;99.90
40758;DHT22;26462;47.384;19.218;2023-02-04T05:18:54;4.40;99.90
40758;DHT22;26462;47.384;19.218;2023-02-04T05:25:02;5.50;99.90
40758;DHT22;26462;47.384;19.218;2023-02-04T05:27:58;5.50;99.90
40758;DHT22;26462;47.384;19.218;2023-02-04T05:45:18;5.50;99.90
40758;DHT22;26462;47.384;19.218;2023-02-04T05:48:25;5.50;99.90
40758;DHT22;26462;47.384;19.218;2023-02-04T05:51:23;5.40;99.90
40758;DHT22;26462;47.384;19.218;2023-02-04T05:53:56;5.50;99.90
40758;DHT22;26462;47.384;19.218;2023-02-04T05:56:56;5.50;99.90
40758;DHT22;26462;47.384;19.218;2023-02-04T05:59:51;5.60;99.90
40758;DHT22;26462;47.384;19.218;2023-02-04T06:02:59;5.50;99.90
40758;DHT22;26462;47.384;19.218;2023-02-04T06:05:49;5.40;99.90
40758;DHT22;26462;47.384;19.218;2023-02-04T06:08:53;5.40;99.90
40758;DHT22;26462;47.384;19.218;2023-02-04T06:16:07;5.30;99.90
40758;DHT22;26462;47.384;19.218;2023-02-04T06:19:03;5.50;99.90
40758;DHT22;26462;47.384;19.218;2023-02-04T06:22:32;5.10;99.90
40758;DHT22;26462;47.384;19.218;2023-02-04T06:25:12;5.20;99.90
40758;DHT22;26462;47.384;19.218;2023-02-04T06:34:56;4.60;99.90
40758;DHT22;26462;47.384;19.218;2023-02-04T06:38:34;3.80;99.90
40758;DHT22;26462;47.384;19.218;2023-02-04T06:53:09;4.40;99.90
40758;DHT22;26462;47.384;19.218;2023-02-04T06:56:17;4.20;99.90
40758;DHT22;26462;47.384;19.218;2023-02-04T07:00:04;4.50;99.60
40758;DHT22;26462;47.384;19.218;2023-02-04T07:03:43;4.50;99.30
40758;DHT22;26462;47.384;19.218;2023-02-04T07:09:43;4.50;99.50
40758;DHT22;26462;47.384;19.218;2023-02-04T07:12:14;4.40;99.40
40758;DHT22;26462;47.384;19.218;2023-02-04T07:15:34;4.40;98.90
40758;DHT22;26462;47.384;19.218;2023-02-04T07:18:38;4.40;98.90
40758;DHT22;26462;47.384;19.218;2023-02-04T07:21:12;4.20;98.30
40758;DHT22;26462;47.384;19.218;2023-02-04T07:24:25;4.50;98.40
40758;DHT22;26462;47.384;19.218;2023-02-04T07:27:34;4.20;97.60
40758;DHT22;26462;47.384;19.218;2023-02-04T07:31:22;4.40;97.00
40758;DHT22;26462;47.384;19.218;2023-02-04T07:34:21;4.50;96.90
40758;DHT22;26462;47.384;19.218;2023-02-04T07:36:56;4.40;96.80
40758;DHT22;26462;47.384;19.218;2023-02-04T07:40:00;4.30;96.80
40758;DHT22;26462;47.384;19.218;2023-02-04T07:42:55;4.20;96.90
40758;DHT22;26462;47.384;19.218;2023-02-04T07:45:36;4.10;97.10
40758;DHT22;26462;47.384;19.218;2023-02-04T07:48:04;4.10;96.80
40758;DHT22;26462;47.384;19.218;2023-02-04T07:50:59;4.00;96.90
40758;DHT22;26462;47.384;19.218;2023-02-04T07:54:12;3.80;97.00
40758;DHT22;26462;47.384;19.218;2023-02-04T07:57:19;3.70;96.90
40758;DHT22;26462;47.384;19.218;2023-02-04T08:00:26;3.70;96.80
40758;DHT22;26462;47.384;19.218;2023-02-04T08:03:02;3.60;96.80
40758;DHT22;26462;47.384;19.218;2023-02-04T08:06:08;3.70;96.80
40758;DHT22;26462;47.384;19.218;2023-02-04T08:08:45;3.60;96.00
40758;DHT22;26462;47.384;19.218;2023-02-04T08:11:33;3.50;96.10
40758;DHT22;26462;47.384;19.218;2023-02-04T08:14:21;3.70;95.60
40758;DHT22;26462;47.384;19.218;2023-02-04T08:17:31;4.00;94.60
40758;DHT22;26462;47.384;19.218;2023-02-04T08:20:13;3.90;93.70
40758;DHT22;26462;47.384;19.218;2023-02-04T08:23:36;4.20;93.60
40758;DHT22;26462;47.384;19.218;2023-02-04T08:26:12;4.20;93.00
40758;DHT22;26462;47.384;19.218;2023-02-04T08:29:08;4.20;92.70
40758;DHT22;26462;47.384;19.218;2023-02-04T08:32:24;4.30;92.60
40758;DHT22;26462;47.384;19.218;2023-02-04T08:35:15;4.00;92.40
40758;DHT22;26462;47.384;19.218;2023-02-04T08:38:06;4.10;92.60
40758;DHT22;26462;47.384;19.218;2023-02-04T08:40:36;4.10;92.30
40758;DHT22;26462;47.384;19.218;2023-02-04T08:43:06;4.10;92.20
40758;DHT22;26462;47.384;19.218;2023-02-04T08:45:46;3.90;92.20
40758;DHT22;26462;47.384;19.218;2023-02-04T08:48:26;3.80;92.10
40758;DHT22;26462;47.384;19.218;2023-02-04T08:51:02;4.10;92.50
40758;DHT22;26462;47.384;19.218;2023-02-04T08:54:31;3.70;92.30
40758;DHT22;26462;47.384;19.218;2023-02-04T08:57:25;3.60;92.00
40758;DHT22;26462;47.384;19.218;2023-02-04T09:00:34;3.80;92.70
40758;DHT22;26462;47.384;19.218;2023-02-04T09:03:42;3.80;91.80
40758;DHT22;26462;47.384;19.218;2023-02-04T09:06:49;3.90;92.00
40758;DHT22;26462;47.384;19.218;2023-02-04T09:09:50;4.00;91.20
40758;DHT22;26462;47.384;19.218;2023-02-04T09:16:23;4.10;90.90
40758;DHT22;26462;47.384;19.218;2023-02-04T09:19:07;3.80;90.50
40758;DHT22;26462;47.384;19.218;2023-02-04T09:21:59;4.40;90.80
40758;DHT22;26462;47.384;19.218;2023-02-04T09:24:39;4.20;90.10
40758;DHT22;26462;47.384;19.218;2023-02-04T09:27:52;4.90;90.60
40758;DHT22;26462;47.384;19.218;2023-02-04T09:31:10;4.30;89.90
40758;DHT22;26462;47.384;19.218;2023-02-04T09:34:20;4.40;89.80
40758;DHT22;26462;47.384;19.218;2023-02-04T09:37:14;4.60;89.20
40758;DHT22;26462;47.384;19.218;2023-02-04T09:44:16;4.80;87.30
40758;DHT22;26462;47.384;19.218;2023-02-04T09:47:20;4.70;86.40
40758;DHT22;26462;47.384;19.218;2023-02-04T09:50:24;4.90;85.00
40758;DHT22;26462;47.384;19.218;2023-02-04T09:53:03;4.80;84.00
40758;DHT22;26462;47.384;19.218;2023-02-04T09:56:15;4.70;84.60
40758;DHT22;26462;47.384;19.218;2023-02-04T10:00:10;4.70;84.20
40758;DHT22;26462;47.384;19.218;2023-02-04T10:02:59;4.60;83.10
40758;DHT22;26462;47.384;19.218;2023-02-04T10:06:22;4.60;81.80
40758;DHT22;26462;47.384;19.218;2023-02-04T10:09:14;4.70;82.10
40758;DHT22;26462;47.384;19.218;2023-02-04T10:12:23;4.50;83.20
40758;DHT22;26462;47.384;19.218;2023-02-04T10:15:14;4.50;82.00
40758;DHT22;26462;47.384;19.218;2023-02-04T10:19:14;4.40;81.50
40758;DHT22;26462;47.384;19.218;2023-02-04T10:22:33;5.10;81.40
40758;DHT22;26462;47.384;19.218;2023-02-04T10:25:21;4.40;81.30
40758;DHT22;26462;47.384;19.218;2023-02-04T10:28:01;4.50;81.20
40758;DHT22;26462;47.384;19.218;2023-02-04T10:30:45;4.40;80.00
40758;DHT22;26462;47.384;19.218;2023-02-04T10:34:32;3.30;79.10
40758;DHT22;26462;47.384;19.218;2023-02-04T10:37:22;4.20;80.30
40758;DHT22;26462;47.384;19.218;2023-02-04T10:44:13;5.00;79.10
40758;DHT22;26462;47.384;19.218;2023-02-04T10:47:23;4.30;77.90
40758;DHT22;26462;47.384;19.218;2023-02-04T10:50:25;4.50;77.20
40758;DHT22;26462;47.384;19.218;2023-02-04T10:53:41;4.30;77.00
40758;DHT22;26462;47.384;19.218;2023-02-04T11:00:48;4.50;76.30
40758;DHT22;26462;47.384;19.218;2023-02-04T11:03:39;4.50;75.40
40758;DHT22;26462;47.384;19.218;2023-02-04T11:16:28;4.90;76.50
40758;DHT22;26462;47.384;19.218;2023-02-04T11:27:39;5.20;74.90
40758;DHT22;26462;47.384;19.218;2023-02-04T11:30:59;4.80;74.00
40758;DHT22;26462;47.384;19.218;2023-02-04T11:34:00;5.00;71.70
40758;DHT22;26462;47.384;19.218;2023-02-04T11:54:42;4.90;72.90
40758;DHT22;26462;47.384;19.218;2023-02-04T11:57:59;5.00;73.20
40758;DHT22;26462;47.384;19.218;2023-02-04T12:04:21;4.70;72.70
40758;DHT22;26462;47.384;19.218;2023-02-04T12:07:05;4.70;71.50
40758;DHT22;26462;47.384;19.218;2023-02-04T12:09:45;4.60;70.70
40758;DHT22;26462;47.384;19.218;2023-02-04T12:12:42;4.70;70.50
40758;DHT22;26462;47.384;19.218;2023-02-04T12:16:12;4.60;69.80
40758;DHT22;26462;47.384;19.218;2023-02-04T12:19:17;4.50;69.70
40758;DHT22;26462;47.384;19.218;2023-02-04T12:26:08;3.90;69.00
40758;DHT22;26462;47.384;19.218;2023-02-04T12:29:34;3.70;67.60
40758;DHT22;26462;47.384;19.218;2023-02-04T12:32:45;4.50;68.10
40758;DHT22;26462;47.384;19.218;2023-02-04T12:35:41;4.50;68.70
40758;DHT22;26462;47.384;19.218;2023-02-04T12:39:10;4.60;69.00
40758;DHT22;26462;47.384;19.218;2023-02-04T12:42:40;4.60;68.80
40758;DHT22;26462;47.384;19.218;2023-02-04T12:49:14;4.20;68.40
40758;DHT22;26462;47.384;19.218;2023-02-04T12:52:21;3.80;67.10
40758;DHT22;26462;47.384;19.218;2023-02-04T12:55:04;4.70;68.30
40758;DHT22;26462;47.384;19.218;2023-02-04T12:57:53;4.80;67.80
40758;DHT22;26462;47.384;19.218;2023-02-04T13:01:00;4.60;67.70
40758;DHT22;26462;47.384;19.218;2023-02-04T13:03:53;4.70;67.00
40758;DHT22;26462;47.384;19.218;2023-02-04T13:07:10;4.80;67.10
40758;DHT22;26462;47.384;19.218;2023-02-04T13:09:52;4.90;65.20
40758;DHT22;26462;47.384;19.218;2023-02-04T13:13:24;4.50;64.40
40758;DHT22;26462;47.384;19.218;2023-02-04T13:16:07;4.40;64.50
40758;DHT22;26462;47.384;19.218;2023-02-04T13:19:08;4.70;65.00
40758;DHT22;26462;47.384;19.218;2023-02-04T13:21:43;4.60;65.50
40758;DHT22;26462;47.384;19.218;2023-02-04T13:24:39;4.40;64.20
40758;DHT22;26462;47.384;19.218;2023-02-04T13:28:19;4.60;64.60
40758;DHT22;26462;47.384;19.218;2023-02-04T13:34:55;4.40;65.60
40758;DHT22;26462;47.384;19.218;2023-02-04T13:37:26;4.40;66.90
40758;DHT22;26462;47.384;19.218;2023-02-04T13:40:26;4.00;67.10
40758;DHT22;26462;47.384;19.218;2023-02-04T13:42:58;4.40;66.80
40758;DHT22;26462;47.384;19.218;2023-02-04T13:45:49;4.40;66.40
40758;DHT22;26462;47.384;19.218;2023-02-04T13:49:48;4.30;64.80
40758;DHT22;26462;47.384;19.218;2023-02-04T13:52:26;4.10;61.00
40758;DHT22;26462;47.384;19.218;2023-02-04T13:54:55;4.00;61.00
40758;DHT22;26462;47.384;19.218;2023-02-04T13:58:08;3.90;60.40
40758;DHT22;26462;47.384;19.218;2023-02-04T14:04:31;3.90;62.50
40758;DHT22;26462;47.384;19.218;2023-02-04T14:13:44;3.70;63.10
40758;DHT22;26462;47.384;19.218;2023-02-04T14:20:19;3.90;64.30
40758;DHT22;26462;47.384;19.218;2023-02-04T14:23:03;3.90;64.50
40758;DHT22;26462;47.384;19.218;2023-02-04T14:26:03;4.10;64.10
40758;DHT22;26462;47.384;19.218;2023-02-04T14:32:42;4.00;64.00
40758;DHT22;26462;47.384;19.218;2023-02-04T14:35:40;3.90;63.90
40758;DHT22;26462;47.384;19.218;2023-02-04T14:38:07;3.80;62.90
40758;DHT22;26462;47.384;19.218;2023-02-04T14:40:48;3.70;61.90
40758;DHT22;26462;47.384;19.218;2023-02-04T14:43:20;3.60;61.70
40758;DHT22;26462;47.384;19.218;2023-02-04T14:45:49;3.70;61.70
40758;DHT22;26462;47.384;19.218;2023-02-04T14:48:23;3.50;61.00
40758;DHT22;26462;47.384;19.218;2023-02-04T14:51:28;3.40;61.70
40758;DHT22;26462;47.384;19.218;2023-02-04T14:53:59;3.40;61.50
40758;DHT22;26462;47.384;19.218;2023-02-04T15:00:09;3.30;62.90
40758;DHT22;26462;47.384;19.218;2023-02-04T15:06:43;3.20;64.80
40758;DHT22;26462;47.384;19.218;2023-02-04T15:09:24;3.10;65.10
40758;DHT22;26462;47.384;19.218;2023-02-04T15:12:01;3.10;65.70
40758;DHT22;26462;47.384;19.218;2023-02-04T15:19:30;2.90;66.40
40758;DHT22;26462;47.384;19.218;2023-02-04T15:22:21;2.80;66.90
40758;DHT22;26462;47.384;19.218;2023-02-04T15:29:13;2.70;65.70
40758;DHT22;26462;47.384;19.218;2023-02-04T15:39:08;2.60;67.00
40758;DHT22;26462;47.384;19.218;2023-02-04T15:45:20;2.50;66.30
40758;DHT22;26462;47.384;19.218;2023-02-04T15:47:54;2.40;66.40
40758;DHT22;26462;47.384;19.218;2023-02-04T15:50:25;2.40;66.60
40758;DHT22;26462;47.384;19.218;2023-02-04T15:52:59;2.30;65.40
40758;DHT22;26462;47.384;19.218;2023-02-04T15:59:28;2.20;66.10
40758;DHT22;26462;47.384;19.218;2023-02-04T16:02:36;2.10;65.90
40758;DHT22;26462;47.384;19.218;2023-02-04T16:05:13;2.20;66.00
40758;DHT22;26462;47.384;19.218;2023-02-04T16:08:14;2.20;65.70
40758;DHT22;26462;47.384;19.218;2023-02-04T16:11:06;2.20;65.20
40758;DHT22;26462;47.384;19.218;2023-02-04T16:14:00;2.10;65.40
40758;DHT22;26462;47.384;19.218;2023-02-04T16:23:51;2.00;66.10
40758;DHT22;26462;47.384;19.218;2023-02-04T16:29:53;2.00;66.30
40758;DHT22;26462;47.384;19.218;2023-02-04T16:33:13;1.90;65.80
40758;DHT22;26462;47.384;19.218;2023-02-04T16:36:22;1.50;65.80
40758;DHT22;26462;47.384;19.218;2023-02-04T16:38:52;1.80;66.60
40758;DHT22;26462;47.384;19.218;2023-02-04T16:41:29;1.70;65.20
40758;DHT22;26462;47.384;19.218;2023-02-04T16:44:49;1.70;65.30
40758;DHT22;26462;47.384;19.218;2023-02-04T16:47:27;1.80;64.80
40758;DHT22;26462;47.384;19.218;2023-02-04T16:56:20;1.70;64.80
40758;DHT22;26462;47.384;19.218;2023-02-04T17:02:39;1.60;65.90
40758;DHT22;26462;47.384;19.218;2023-02-04T17:05:24;1.70;65.80
40758;DHT22;26462;47.384;19.218;2023-02-04T17:19:19;1.50;67.10
40758;DHT22;26462;47.384;19.218;2023-02-04T17:23:25;1.40;66.30
40758;DHT22;26462;47.384;19.218;2023-02-04T17:26:10;1.60;66.40
40758;DHT22;26462;47.384;19.218;2023-02-04T17:32:24;1.40;67.60
40758;DHT22;26462;47.384;19.218;2023-02-04T18:38:24;1.00;72.40
40758;DHT22;26462;47.384;19.218;2023-02-04T19:07:31;0.80;76.60
40758;DHT22;26462;47.384;19.218;2023-02-04T19:10:47;0.70;76.70
40758;DHT22;26462;47.384;19.218;2023-02-04T19:57:32;0.50;77.30
40758;DHT22;26462;47.384;19.218;2023-02-04T20:39:52;0.20;80.30
40758;DHT22;26462;47.384;19.218;2023-02-04T21:27:31;0.00;85.40
40758;DHT22;26462;47.384;19.218;2023-02-04T22:02:30;-0.20;86.90
40758;DHT22;26462;47.384;19.218;2023-02-04T23:11:44;-0.20;87.40
40758;DHT22;26462;47.384;19.218;2023-02-04T23:24:55;-0.20;87.60
40758;DHT22;26462;47.384;19.218;2023-02-04T23:27:36;-0.30;87.90
40758;DHT22;26462;47.384;19.218;2023-02-04T23:30:09;-0.30;87.80
40758;DHT22;26462;47.384;19.218;2023-02-04T23:32:47;-0.30;88.00
40758;DHT22;26462;47.384;19.218;2023-02-04T23:35:21;-0.30;88.20
40758;DHT22;26462;47.384;19.218;2023-02-04T23:37:49;-0.30;88.20
40758;DHT22;26462;47.384;19.218;2023-02-04T23:40:24;-0.30;88.30
40758;DHT22;26462;47.384;19.218;2023-02-04T23:42:54;-0.30;88.40
40758;DHT22;26462;47.384;19.218;2023-02-04T23:45:29;-0.70;88.30
